createdAt,value
2018-04-29T00:00:53.585Z,100404
2018-04-29T00:03:21.904Z,100399
2018-04-29T00:05:50.004Z,100397
2018-04-29T00:08:18.130Z,100406
2018-04-29T00:10:46.247Z,100411
2018-04-29T00:13:14.346Z,100402
2018-04-29T00:15:42.456Z,100398
2018-04-29T00:18:10.543Z,100394
2018-04-29T00:20:38.626Z,100387
2018-04-29T00:23:06.943Z,100388
2018-04-29T00:25:35.063Z,100388
2018-04-29T00:28:03.224Z,100374
2018-04-29T00:30:31.325Z,100381
2018-04-29T00:32:59.551Z,100370
2018-04-29T00:35:27.786Z,100382
2018-04-29T00:37:55.889Z,100392
2018-04-29T00:40:24.020Z,100380
2018-04-29T00:42:52.170Z,100383
2018-04-29T00:45:20.443Z,100383
2018-04-29T00:47:48.572Z,100378
2018-04-29T00:50:16.695Z,100374
2018-04-29T00:52:44.804Z,100377
2018-04-29T00:55:12.989Z,100369
2018-04-29T00:57:41.064Z,100370
2018-04-29T01:00:09.192Z,100350
2018-04-29T01:02:37.321Z,100357
2018-04-29T01:05:05.418Z,100357
2018-04-29T01:07:33.707Z,100359
2018-04-29T01:10:01.827Z,100344
2018-04-29T01:12:30.671Z,100356
2018-04-29T01:14:58.762Z,100354
2018-04-29T01:17:26.902Z,100354
2018-04-29T01:19:55.014Z,100357
2018-04-29T01:22:23.197Z,100359
2018-04-29T01:24:51.320Z,100358
2018-04-29T01:27:19.424Z,100357
2018-04-29T01:29:47.601Z,100348
2018-04-29T01:32:15.766Z,100352
2018-04-29T01:34:43.916Z,100361
2018-04-29T01:37:12.044Z,100356
2018-04-29T01:39:40.207Z,100356
2018-04-29T01:42:08.337Z,100363
2018-04-29T01:44:36.434Z,100365
2018-04-29T01:47:04.527Z,100362
2018-04-29T01:49:32.646Z,100369
2018-04-29T01:52:01.051Z,100367
2018-04-29T01:54:29.193Z,100371
2018-04-29T01:56:57.307Z,100375
2018-04-29T01:59:25.491Z,100369
2018-04-29T02:01:53.696Z,100385
2018-04-29T02:04:21.805Z,100380
2018-04-29T02:06:49.948Z,100374
2018-04-29T02:09:18.472Z,100377
2018-04-29T02:11:46.588Z,100373
2018-04-29T02:14:14.870Z,100361
2018-04-29T02:16:42.995Z,100357
2018-04-29T02:19:11.119Z,100355
2018-04-29T02:21:39.225Z,100348
2018-04-29T02:24:07.342Z,100360
2018-04-29T02:26:35.468Z,100354
2018-04-29T02:29:03.622Z,100353
2018-04-29T02:31:31.726Z,100361
2018-04-29T02:33:59.835Z,100362
2018-04-29T02:36:27.987Z,100356
2018-04-29T02:38:56.102Z,100349
2018-04-29T02:41:24.227Z,100362
2018-04-29T02:43:52.369Z,100359
2018-04-29T02:46:20.468Z,100370
2018-04-29T02:48:48.616Z,100369
2018-04-29T02:51:16.715Z,100362
2018-04-29T02:53:44.926Z,100356
2018-04-29T02:56:13.028Z,100360
2018-04-29T02:58:41.174Z,100355
2018-04-29T03:01:09.269Z,100340
2018-04-29T03:03:37.402Z,100338
2018-04-29T03:06:05.508Z,100346
2018-04-29T03:08:33.631Z,100347
2018-04-29T03:11:01.720Z,100348
2018-04-29T03:13:30.114Z,100355
2018-04-29T03:15:58.276Z,100345
2018-04-29T03:18:26.387Z,100351
2018-04-29T03:20:54.470Z,100347
2018-04-29T03:23:22.570Z,100341
2018-04-29T03:25:50.735Z,100338
2018-04-29T03:28:18.824Z,100335
2018-04-29T03:30:46.903Z,100335
2018-04-29T03:33:14.998Z,100334
2018-04-29T03:35:43.087Z,100325
2018-04-29T03:38:11.204Z,100330
2018-04-29T03:40:39.273Z,100325
2018-04-29T03:43:07.370Z,100331
2018-04-29T03:45:35.448Z,100333
2018-04-29T03:48:03.638Z,100336
2018-04-29T03:50:31.724Z,100332
2018-04-29T03:52:59.828Z,100332
2018-04-29T03:55:27.953Z,100330
2018-04-29T03:58:07.830Z,100323
2018-04-29T04:00:58.540Z,100326
2018-04-29T04:03:38.643Z,100325
2018-04-29T04:06:06.773Z,100322
2018-04-29T04:08:35.053Z,100323
2018-04-29T04:11:03.230Z,100306
2018-04-29T04:13:31.569Z,100306
2018-04-29T04:15:59.890Z,100298
2018-04-29T04:18:28.133Z,100291
2018-04-29T04:20:56.468Z,100296
2018-04-29T04:23:24.755Z,100303
2018-04-29T04:25:53.082Z,100310
2018-04-29T04:28:21.650Z,100312
2018-04-29T04:30:49.986Z,100316
2018-04-29T04:33:18.309Z,100309
2018-04-29T04:35:46.729Z,100305
2018-04-29T04:38:14.968Z,100304
2018-04-29T04:40:43.190Z,100313
2018-04-29T04:43:11.724Z,100315
2018-04-29T04:45:40.034Z,100314
2018-04-29T04:48:08.372Z,100316
2018-04-29T04:50:36.710Z,100319
2018-04-29T04:53:05.051Z,100318
2018-04-29T04:55:33.295Z,100322
2018-04-29T04:58:01.734Z,100333
2018-04-29T05:00:30.054Z,100323
2018-04-29T05:02:58.438Z,100330
2018-04-29T05:05:26.757Z,100332
2018-04-29T05:07:54.905Z,100341
2018-04-29T05:10:23.276Z,100324
2018-04-29T05:12:51.814Z,100324
2018-04-29T05:15:20.009Z,100335
2018-04-29T05:17:48.284Z,100335
2018-04-29T05:20:16.534Z,100336
2018-04-29T05:22:44.745Z,100348
2018-04-29T05:25:12.988Z,100343
2018-04-29T05:27:41.284Z,100343
2018-04-29T05:30:09.661Z,100343
2018-04-29T05:32:38.053Z,100343
2018-04-29T05:35:06.499Z,100343
2018-04-29T05:37:34.708Z,100341
2018-04-29T05:40:03.373Z,100346
2018-04-29T05:42:32.220Z,100351
2018-04-29T05:45:00.528Z,100350
2018-04-29T05:47:28.759Z,100347
2018-04-29T05:49:57.087Z,100340
2018-04-29T05:52:25.585Z,100338
2018-04-29T05:54:55.051Z,100335
2018-04-29T05:57:23.437Z,100343
2018-04-29T05:59:51.631Z,100341
2018-04-29T06:02:19.921Z,100345
2018-04-29T06:04:48.495Z,100340
2018-04-29T06:07:16.689Z,100342
2018-04-29T06:09:45.004Z,100338
2018-04-29T06:12:13.213Z,100346
2018-04-29T06:14:41.562Z,100339
2018-04-29T06:17:09.813Z,100340
2018-04-29T06:19:38.985Z,100344
2018-04-29T06:22:07.266Z,100337
2018-04-29T06:24:35.686Z,100335
2018-04-29T06:27:03.979Z,100333
2018-04-29T06:29:32.300Z,100318
2018-04-29T06:32:00.646Z,100333
2018-04-29T06:34:29.085Z,100337
2018-04-29T06:36:57.221Z,100330
2018-04-29T06:39:25.529Z,100330
2018-04-29T06:41:53.862Z,100319
2018-04-29T06:44:22.407Z,100317
2018-04-29T06:46:50.779Z,100313
2018-04-29T06:49:19.253Z,100306
2018-04-29T06:51:47.563Z,100303
2018-04-29T06:54:15.871Z,100304
2018-04-29T06:56:44.226Z,100313
2018-04-29T06:59:12.533Z,100307
2018-04-29T07:01:40.784Z,100310
2018-04-29T07:04:09.206Z,100308
2018-04-29T07:06:37.437Z,100302
2018-04-29T07:09:05.740Z,100305
2018-04-29T07:11:34.150Z,100300
2018-04-29T07:14:02.361Z,100307
2018-04-29T07:16:30.626Z,100301
2018-04-29T07:18:58.880Z,100295
2018-04-29T07:21:27.197Z,100288
2018-04-29T07:23:55.509Z,100281
2018-04-29T07:26:24.139Z,100288
2018-04-29T07:28:52.425Z,100285
2018-04-29T07:31:20.720Z,100278
2018-04-29T07:33:49.185Z,100268
2018-04-29T07:36:17.488Z,100268
2018-04-29T07:38:45.838Z,100284
2018-04-29T07:41:14.145Z,100279
2018-04-29T07:43:42.660Z,100283
2018-04-29T07:46:10.876Z,100274
2018-04-29T07:48:39.157Z,100274
2018-04-29T07:51:07.446Z,100270
2018-04-29T07:53:35.848Z,100280
2018-04-29T07:56:04.250Z,100272
2018-04-29T07:58:32.561Z,100294
2018-04-29T08:01:00.801Z,100285
2018-04-29T08:03:29.192Z,100278
2018-04-29T08:05:57.499Z,100279
2018-04-29T08:08:25.825Z,100288
2018-04-29T08:10:54.173Z,100293
2018-04-29T08:13:22.358Z,100292
2018-04-29T08:15:50.655Z,100288
2018-04-29T08:18:19.154Z,100304
2018-04-29T08:20:47.471Z,100299
2018-04-29T08:23:17.857Z,100300
2018-04-29T08:25:46.269Z,100295
2018-04-29T08:28:14.503Z,100288
2018-04-29T08:30:42.661Z,100281
2018-04-29T08:33:10.951Z,100283
2018-04-29T08:35:39.402Z,100262
2018-04-29T08:38:07.834Z,100275
2018-04-29T08:40:36.283Z,100265
2018-04-29T08:43:04.427Z,100277
2018-04-29T08:45:32.603Z,100285
2018-04-29T08:48:00.990Z,100276
2018-04-29T08:50:29.512Z,100270
2018-04-29T08:52:57.651Z,100260
2018-04-29T08:55:25.922Z,100272
2018-04-29T08:57:54.347Z,100262
2018-04-29T09:00:22.580Z,100257
2018-04-29T09:02:50.822Z,100262
2018-04-29T09:05:19.293Z,100258
2018-04-29T09:07:47.590Z,100261
2018-04-29T09:10:15.804Z,100262
2018-04-29T09:12:44.339Z,100258
2018-04-29T09:15:12.543Z,100252
2018-04-29T09:17:40.790Z,100251
2018-04-29T09:20:09.250Z,100239
2018-04-29T09:22:37.541Z,100249
2018-04-29T09:25:05.839Z,100245
2018-04-29T09:27:34.170Z,100246
2018-04-29T09:30:02.446Z,100247
2018-04-29T09:32:30.844Z,100254
2018-04-29T09:34:59.191Z,100250
2018-04-29T09:37:27.329Z,100245
2018-04-29T09:39:55.727Z,100254
2018-04-29T09:42:24.203Z,100253
2018-04-29T09:44:52.608Z,100258
2018-04-29T09:47:20.807Z,100260
2018-04-29T09:49:49.293Z,100260
2018-04-29T09:52:17.670Z,100247
2018-04-29T09:54:45.956Z,100257
2018-04-29T09:57:14.253Z,100253
2018-04-29T09:59:42.700Z,100254
2018-04-29T10:02:11.929Z,100259
2018-04-29T10:04:40.673Z,100263
2018-04-29T10:07:09.227Z,100258
2018-04-29T10:09:37.646Z,100260
2018-04-29T10:12:05.897Z,100247
2018-04-29T10:14:34.312Z,100256
2018-04-29T10:17:02.573Z,100257
2018-04-29T10:19:30.995Z,100260
2018-04-29T10:21:59.257Z,100252
2018-04-29T10:24:27.732Z,100268
2018-04-29T10:26:55.936Z,100253
2018-04-29T10:29:24.206Z,100250
2018-04-29T10:31:52.938Z,100256
2018-04-29T10:34:21.203Z,100248
2018-04-29T10:36:49.309Z,100244
2018-04-29T10:39:17.573Z,100234
2018-04-29T10:41:45.848Z,100225
2018-04-29T10:44:14.158Z,100231
2018-04-29T10:46:42.399Z,100230
2018-04-29T10:49:10.744Z,100239
2018-04-29T10:51:39.034Z,100233
2018-04-29T10:54:07.429Z,100231
2018-04-29T10:56:35.970Z,100226
2018-04-29T10:59:04.151Z,100228
2018-04-29T11:01:32.253Z,100234
2018-04-29T11:04:00.486Z,100239
2018-04-29T11:06:28.727Z,100232
2018-04-29T11:08:56.885Z,100232
2018-04-29T11:11:26.725Z,100227
2018-04-29T11:13:54.875Z,100218
2018-04-29T11:16:23.144Z,100203
2018-04-29T11:18:52.261Z,100199
2018-04-29T11:21:20.488Z,100207
2018-04-29T11:23:48.849Z,100195
2018-04-29T11:26:16.985Z,100196
2018-04-29T11:28:45.121Z,100184
2018-04-29T11:31:13.314Z,100187
2018-04-29T11:33:41.689Z,100177
2018-04-29T11:36:10.178Z,100182
2018-04-29T11:38:38.364Z,100170
2018-04-29T11:41:06.690Z,100164
2018-04-29T11:43:34.932Z,100152
2018-04-29T11:46:03.260Z,100147
2018-04-29T11:48:31.602Z,100151
2018-04-29T11:50:59.785Z,100163
2018-04-29T11:53:28.006Z,100147
2018-04-29T11:55:56.232Z,100147
2018-04-29T11:58:24.451Z,100149
2018-04-29T12:00:52.756Z,100158
2018-04-29T12:03:20.996Z,100154
2018-04-29T12:05:49.336Z,100153
2018-04-29T12:08:17.618Z,100153
2018-04-29T12:10:45.918Z,100144
2018-04-29T12:13:14.254Z,100140
2018-04-29T12:15:42.586Z,100131
2018-04-29T12:18:10.822Z,100121
2018-04-29T12:20:39.204Z,100129
2018-04-29T12:23:07.352Z,100113
2018-04-29T12:25:35.591Z,100110
2018-04-29T12:28:03.924Z,100111
2018-04-29T12:30:32.108Z,100091
2018-04-29T12:33:00.300Z,100096
2018-04-29T12:35:28.519Z,100104
2018-04-29T12:37:56.741Z,100097
2018-04-29T12:40:25.084Z,100093
2018-04-29T12:42:53.322Z,100092
2018-04-29T12:45:21.654Z,100078
2018-04-29T12:47:49.904Z,100087
2018-04-29T12:50:18.154Z,100078
2018-04-29T12:52:46.544Z,100085
2018-04-29T12:55:14.794Z,100063
2018-04-29T12:57:42.976Z,100056
2018-04-29T13:00:11.400Z,100046
2018-04-29T13:02:39.500Z,100053
2018-04-29T13:05:07.826Z,100058
2018-04-29T13:07:36.120Z,100030
2018-04-29T13:10:04.315Z,100018
2018-04-29T13:12:32.585Z,100013
2018-04-29T13:15:01.111Z,100012
2018-04-29T13:17:29.288Z,100009
2018-04-29T13:19:58.934Z,100014
2018-04-29T13:22:27.223Z,100013
2018-04-29T13:24:55.473Z,100009
2018-04-29T13:27:23.792Z,99990
2018-04-29T13:29:51.975Z,99984
2018-04-29T13:32:20.118Z,99975
2018-04-29T13:34:48.348Z,99981
2018-04-29T13:37:16.734Z,99969
2018-04-29T13:39:45.004Z,99975
2018-04-29T13:42:13.290Z,99966
2018-04-29T13:44:41.513Z,99959
2018-04-29T13:47:09.660Z,99948
2018-04-29T13:49:37.799Z,99950
2018-04-29T13:52:06.057Z,99938
2018-04-29T13:54:34.338Z,99944
2018-04-29T13:57:02.554Z,99942
2018-04-29T13:59:30.815Z,99942
2018-04-29T14:01:59.272Z,99926
2018-04-29T14:04:27.489Z,99932
2018-04-29T14:06:55.941Z,99933
2018-04-29T14:09:24.608Z,99929
2018-04-29T14:11:52.834Z,99926
2018-04-29T14:14:21.102Z,99920
2018-04-29T14:16:49.986Z,99915
2018-04-29T14:19:18.268Z,99921
2018-04-29T14:21:46.683Z,99925
2018-04-29T14:24:14.981Z,99912
2018-04-29T14:26:43.336Z,99917
2018-04-29T14:29:11.885Z,99918
2018-04-29T14:31:40.182Z,99905
2018-04-29T14:34:08.463Z,99907
2018-04-29T14:36:36.926Z,99898
2018-04-29T14:39:05.234Z,99910
2018-04-29T14:41:33.459Z,99898
2018-04-29T14:44:01.833Z,99904
2018-04-29T14:46:30.190Z,99899
2018-04-29T14:48:58.507Z,99900
2018-04-29T14:51:26.914Z,99897
2018-04-29T14:53:55.291Z,99901
2018-04-29T14:56:23.598Z,99904
2018-04-29T14:58:51.850Z,99902
2018-04-29T15:01:20.195Z,99897
2018-04-29T15:03:48.443Z,99896
2018-04-29T15:06:16.935Z,99893
2018-04-29T15:08:45.236Z,99904
2018-04-29T15:11:13.497Z,99901
2018-04-29T15:13:41.890Z,99900
2018-04-29T15:16:10.166Z,99908
2018-04-29T15:18:50.122Z,99922
2018-04-29T15:21:18.312Z,99935
2018-04-29T15:23:46.700Z,99953
2018-04-29T15:26:14.931Z,99968
2018-04-29T15:28:43.308Z,99979
2018-04-29T15:31:11.676Z,99988
2018-04-29T15:33:39.941Z,99983
2018-04-29T15:36:08.748Z,99980
2018-04-29T15:38:36.935Z,99975
2018-04-29T15:41:05.079Z,99984
2018-04-29T15:43:33.262Z,99978
2018-04-29T15:46:01.522Z,99966
2018-04-29T15:48:29.758Z,99967
2018-04-29T15:50:58.066Z,99966
2018-04-29T15:53:26.363Z,99927
2018-04-29T15:55:54.589Z,99957
2018-04-29T15:58:23.104Z,99935
2018-04-29T16:00:51.715Z,99932
2018-04-29T16:03:20.862Z,99912
2018-04-29T16:05:49.521Z,99920
2018-04-29T16:08:17.920Z,99907
2018-04-29T16:10:46.333Z,99888
2018-04-29T16:13:14.722Z,99900
2018-04-29T16:15:43.303Z,99886
2018-04-29T16:18:11.686Z,99882
2018-04-29T16:20:40.105Z,99868
2018-04-29T16:23:08.664Z,99863
2018-04-29T16:25:37.085Z,99864
2018-04-29T16:28:05.585Z,99863
2018-04-29T16:30:33.888Z,99851
2018-04-29T16:33:02.147Z,99846
2018-04-29T16:35:30.704Z,99853
2018-04-29T16:37:59.097Z,99846
2018-04-29T16:40:27.491Z,99845
2018-04-29T16:42:55.884Z,99836
2018-04-29T16:45:24.384Z,99832
2018-04-29T16:47:52.747Z,99832
2018-04-29T16:50:21.201Z,99817
2018-04-29T16:52:49.698Z,99818
2018-04-29T16:55:18.127Z,99805
2018-04-29T16:57:46.805Z,99807
2018-04-29T17:00:15.136Z,99797
2018-04-29T17:02:43.706Z,99789
2018-04-29T17:05:12.249Z,99788
2018-04-29T17:07:40.763Z,99772
2018-04-29T17:10:09.585Z,99765
2018-04-29T17:12:38.150Z,99771
2018-04-29T17:15:06.596Z,99753
2018-04-29T17:17:34.857Z,99756
2018-04-29T17:20:03.891Z,99747
2018-04-29T17:22:32.425Z,99745
2018-04-29T17:25:01.189Z,99739
2018-04-29T17:27:29.824Z,99740
2018-04-29T17:29:58.617Z,99732
2018-04-29T17:32:27.136Z,99732
2018-04-29T17:34:55.878Z,99733
2018-04-29T17:37:25.083Z,99735
2018-04-29T17:39:54.491Z,99731
2018-04-29T17:42:22.945Z,99729
2018-04-29T17:44:51.703Z,99728
2018-04-29T17:47:20.173Z,99735
2018-04-29T17:49:48.643Z,99735
2018-04-29T17:52:17.160Z,99726
2018-04-29T17:54:46.008Z,99741
2018-04-29T17:57:14.627Z,99737
2018-04-29T17:59:44.832Z,99732
2018-04-29T18:02:13.481Z,99729
2018-04-29T18:04:42.256Z,99734
2018-04-29T18:07:10.888Z,99737
2018-04-29T18:09:39.617Z,99741
2018-04-29T18:12:07.936Z,99748
2018-04-29T18:14:36.364Z,99738
2018-04-29T18:17:04.714Z,99737
2018-04-29T18:19:33.101Z,99737
2018-04-29T18:22:01.577Z,99729
2018-04-29T18:24:29.933Z,99727
2018-04-29T18:26:58.458Z,99728
2018-04-29T18:29:26.942Z,99734
2018-04-29T18:31:55.271Z,99725
2018-04-29T18:34:23.399Z,99715
2018-04-29T18:36:51.665Z,99712
2018-04-29T18:39:19.909Z,99712
2018-04-29T18:41:48.353Z,99697
2018-04-29T18:44:16.523Z,99707
2018-04-29T18:46:44.651Z,99696
2018-04-29T18:49:12.770Z,99697
2018-04-29T18:51:40.942Z,99694
2018-04-29T18:54:08.992Z,99706
2018-04-29T18:56:37.276Z,99697
2018-04-29T18:59:05.353Z,99690
2018-04-29T19:01:33.467Z,99691
2018-04-29T19:04:01.566Z,99702
2018-04-29T19:06:29.695Z,99694
2018-04-29T19:08:57.793Z,99702
2018-04-29T19:11:26.087Z,99694
2018-04-29T19:13:54.204Z,99685
2018-04-29T19:16:22.390Z,99689
2018-04-29T19:18:50.516Z,99689
2018-04-29T19:21:18.714Z,99693
2018-04-29T19:23:46.810Z,99687
2018-04-29T19:26:15.010Z,99684
2018-04-29T19:28:43.203Z,99674
2018-04-29T19:31:11.343Z,99665
2018-04-29T19:33:39.648Z,99674
2018-04-29T19:36:07.950Z,99669
2018-04-29T19:38:36.160Z,99669
2018-04-29T19:41:04.276Z,99665
2018-04-29T19:43:32.406Z,99664
2018-04-29T19:46:00.596Z,99664
2018-04-29T19:48:28.747Z,99668
2018-04-29T19:50:56.897Z,99663
2018-04-29T19:53:25.022Z,99655
2018-04-29T19:55:53.200Z,99657
2018-04-29T19:58:21.361Z,99652
2018-04-29T20:00:49.538Z,99649
2018-04-29T20:03:17.705Z,99650
2018-04-29T20:05:45.878Z,99644
2018-04-29T20:08:14.067Z,99634
2018-04-29T20:10:42.232Z,99632
2018-04-29T20:13:10.468Z,99628
2018-04-29T20:15:38.621Z,99630
2018-04-29T20:18:06.773Z,99634
2018-04-29T20:20:34.988Z,99627
2018-04-29T20:23:03.188Z,99627
2018-04-29T20:25:31.279Z,99631
2018-04-29T20:27:59.395Z,99621
2018-04-29T20:30:27.743Z,99614
2018-04-29T20:32:55.915Z,99616
2018-04-29T20:35:24.082Z,99599
2018-04-29T20:37:52.332Z,99601
2018-04-29T20:40:20.670Z,99596
2018-04-29T20:42:48.814Z,99598
2018-04-29T20:45:16.951Z,99599
2018-04-29T20:47:45.087Z,99586
2018-04-29T20:50:13.253Z,99582
2018-04-29T20:52:41.384Z,99568
2018-04-29T20:55:09.506Z,99575
2018-04-29T20:57:37.643Z,99567
2018-04-29T21:00:05.766Z,99562
2018-04-29T21:02:33.902Z,99550
2018-04-29T21:05:02.057Z,99553
2018-04-29T21:07:30.209Z,99545
2018-04-29T21:09:58.369Z,99535
2018-04-29T21:12:26.566Z,99536
2018-04-29T21:14:54.863Z,99520
2018-04-29T21:17:23.110Z,99520
2018-04-29T21:19:51.298Z,99510
2018-04-29T21:22:19.613Z,99517
2018-04-29T21:24:47.733Z,99498
2018-04-29T21:27:15.868Z,99496
2018-04-29T21:29:44.053Z,99482
2018-04-29T21:32:12.207Z,99485
2018-04-29T21:34:40.526Z,99479
2018-04-29T21:37:08.734Z,99467
2018-04-29T21:39:36.942Z,99469
2018-04-29T21:42:05.153Z,99473
2018-04-29T21:44:33.302Z,99460
2018-04-29T21:47:01.797Z,99444
2018-04-29T21:49:30.559Z,99446
2018-04-29T21:51:58.694Z,99446
2018-04-29T21:54:26.830Z,99442
2018-04-29T21:56:55.008Z,99437
2018-04-29T21:59:23.393Z,99438
2018-04-29T22:01:51.609Z,99432
2018-04-29T22:04:19.899Z,99419
2018-04-29T22:06:47.976Z,99417
2018-04-29T22:09:16.176Z,99408
2018-04-29T22:11:44.282Z,99416
2018-04-29T22:14:12.404Z,99408
2018-04-29T22:16:40.556Z,99412
2018-04-29T22:19:08.678Z,99413
2018-04-29T22:21:37.050Z,99418
2018-04-29T22:24:05.129Z,99406
2018-04-29T22:26:33.406Z,99400
2018-04-29T22:29:01.668Z,99405
2018-04-29T22:31:29.890Z,99401
2018-04-29T22:33:58.005Z,99396
2018-04-29T22:36:26.310Z,99397
2018-04-29T22:38:54.462Z,99389
2018-04-29T22:41:23.562Z,99387
2018-04-29T22:43:51.706Z,99394
2018-04-29T22:46:19.833Z,99391
2018-04-29T22:48:48.033Z,99393
2018-04-29T22:51:16.214Z,99390
2018-04-29T22:53:44.446Z,99380
2018-04-29T22:56:12.641Z,99378
2018-04-29T22:58:40.776Z,99373
2018-04-29T23:01:08.886Z,99368
2018-04-29T23:03:37.046Z,99369
2018-04-29T23:06:05.149Z,99369
2018-04-29T23:08:33.295Z,99357
2018-04-29T23:11:01.436Z,99362
2018-04-29T23:13:29.533Z,99362
2018-04-29T23:15:57.658Z,99363
2018-04-29T23:18:25.847Z,99345
2018-04-29T23:20:54.087Z,99336
2018-04-29T23:23:22.171Z,99340
2018-04-29T23:25:50.307Z,99332
2018-04-29T23:28:18.415Z,99337
2018-04-29T23:30:46.635Z,99314
2018-04-29T23:33:14.756Z,99316
2018-04-29T23:35:43.120Z,99305
2018-04-29T23:38:11.385Z,99305
2018-04-29T23:40:39.470Z,99300
2018-04-29T23:43:07.632Z,99291
2018-04-29T23:45:35.797Z,99288
2018-04-29T23:48:03.934Z,99277
2018-04-29T23:50:32.021Z,99279
2018-04-29T23:53:00.178Z,99262
2018-04-29T23:55:28.389Z,99260
2018-04-29T23:57:56.591Z,99254
